VHAQY YKMP-YTRE

Flight info

Callsign VHAQY
Flight time 0h 32m
Altitude 3000
Route PMQ
Aircraft C172/L-SFG/C

Departure

Time 2026-04-12 12:43
Airport Kempsey Airport (YKMP)

Arrival

Time 2026-04-12 13:15
Airport Taree Airport (YTRE)
Time Latitude Longitude Altitude Speed Heading
2026-04-12 12:34 -31.06916 152.76551 60 ft 0 kts 140°
2026-04-12 12:39 -31.06921 152.76560 60 ft 3 kts 99°
2026-04-12 12:39 -31.06902 152.76595 60 ft 0 kts 73°
2026-04-12 12:39 -31.06901 152.76602 60 ft 5 kts 93°
2026-04-12 12:40 -31.06937 152.76640 61 ft 7 kts 144°
2026-04-12 12:40 -31.06981 152.76677 59 ft 9 kts 144°
2026-04-12 12:40 -31.07041 152.76726 58 ft 12 kts 147°
2026-04-12 12:40 -31.07120 152.76706 57 ft 15 kts 233°
2026-04-12 12:41 -31.07181 152.76608 58 ft 15 kts 234°
2026-04-12 12:41 -31.07247 152.76503 59 ft 17 kts 234°
2026-04-12 12:41 -31.07320 152.76385 59 ft 19 kts 233°
2026-04-12 12:41 -31.07378 152.76268 61 ft 13 kts 232°
2026-04-12 12:42 -31.07385 152.76288 61 ft 4 kts 37°
2026-04-12 12:42 -31.07249 152.76496 59 ft 54 kts 53°
2026-04-12 12:42 -31.06946 152.76959 142 ft 81 kts 49°
2026-04-12 12:43 -31.06570 152.77453 391 ft 77 kts 43°
2026-04-12 12:43 -31.06341 152.78031 592 ft 85 kts 91°
2026-04-12 12:43 -31.06597 152.78595 879 ft 80 kts 148°
2026-04-12 12:43 -31.07124 152.78873 1080 ft 82 kts 171°
2026-04-12 12:44 -31.07710 152.78912 1264 ft 90 kts 182°
2026-04-12 12:44 -31.08291 152.78993 1596 ft 81 kts 175°
2026-04-12 12:44 -31.08867 152.79178 1804 ft 94 kts 169°
2026-04-12 12:44 -31.09517 152.79447 1988 ft 104 kts 168°
2026-04-12 12:45 -31.10188 152.79729 2300 ft 101 kts 167°
2026-04-12 12:45 -31.10828 152.80030 2490 ft 98 kts 168°
2026-04-12 12:45 -31.11461 152.80338 2609 ft 95 kts 163°
2026-04-12 12:45 -31.12095 152.80556 2700 ft 92 kts 175°
2026-04-12 12:46 -31.12729 152.80781 2841 ft 98 kts 169°
2026-04-12 12:46 -31.13375 152.81061 3025 ft 100 kts 166°
2026-04-12 12:46 -31.13997 152.81356 3298 ft 96 kts 167°
2026-04-12 12:46 -31.14632 152.81672 3542 ft 103 kts 164°
2026-04-12 12:47 -31.15307 152.82054 3615 ft 109 kts 167°
2026-04-12 12:47 -31.16039 152.82416 3730 ft 117 kts 165°
2026-04-12 12:47 -31.16803 152.82801 3682 ft 122 kts 166°
2026-04-12 12:47 -31.17587 152.83131 3664 ft 122 kts 170°
2026-04-12 12:48 -31.18404 152.83432 3654 ft 120 kts 169°
2026-04-12 12:48 -31.19210 152.83790 3557 ft 126 kts 166°
2026-04-12 12:48 -31.20028 152.84141 3505 ft 126 kts 168°
2026-04-12 12:48 -31.20884 152.84516 3302 ft 133 kts 168°
2026-04-12 12:49 -31.21771 152.84806 3288 ft 131 kts 174°
2026-04-12 12:49 -31.22653 152.85006 3136 ft 130 kts 179°
2026-04-12 12:49 -31.23555 152.85105 3086 ft 129 kts 183°
2026-04-12 12:49 -31.24444 152.85173 3061 ft 126 kts 185°
2026-04-12 12:50 -31.25301 152.85171 2982 ft 127 kts 187°
2026-04-12 12:50 -31.26189 152.85101 2873 ft 125 kts 192°
2026-04-12 12:50 -31.27077 152.85028 2737 ft 127 kts 187°
2026-04-12 12:50 -31.27897 152.84920 2376 ft 118 kts 199°
2026-04-12 12:51 -31.28686 152.84893 2122 ft 121 kts 180°
2026-04-12 12:51 -31.29522 152.85088 2085 ft 122 kts 174°
2026-04-12 12:51 -31.30295 152.85373 2320 ft 111 kts 165°
2026-04-12 12:51 -31.31005 152.85726 2481 ft 107 kts 170°
2026-04-12 12:52 -31.31681 152.86001 2696 ft 101 kts 171°
2026-04-12 12:52 -31.32360 152.86293 2930 ft 103 kts 171°
2026-04-12 12:52 -31.33069 152.86613 2964 ft 115 kts 163°
2026-04-12 12:52 -31.33836 152.86939 2993 ft 117 kts 171°
2026-04-12 12:53 -31.34621 152.87144 2933 ft 119 kts 180°
2026-04-12 12:53 -31.35481 152.87250 2741 ft 126 kts 183°
2026-04-12 12:53 -31.36340 152.87325 2627 ft 124 kts 183°
2026-04-12 12:53 -31.37215 152.87355 2445 ft 126 kts 186°
2026-04-12 12:54 -31.38098 152.87329 2281 ft 128 kts 189°
2026-04-12 12:54 -31.38983 152.87261 2109 ft 126 kts 189°
2026-04-12 12:54 -31.39839 152.87243 2078 ft 122 kts 187°
2026-04-12 12:54 -31.40703 152.87224 2037 ft 126 kts 188°
2026-04-12 12:55 -31.41530 152.87218 2179 ft 113 kts 191°
2026-04-12 12:55 -31.42266 152.86997 2234 ft 108 kts 205°
2026-04-12 12:55 -31.42928 152.86565 2364 ft 109 kts 217°
2026-04-12 12:55 -31.43338 152.86224 2540 ft 107 kts 222°
2026-04-12 12:56 -31.43858 152.85646 2701 ft 100 kts 221°
2026-04-12 12:56 -31.44662 152.85062 2764 ft 102 kts 212°
2026-04-12 12:56 -31.45110 152.84826 2898 ft 103 kts 208°
2026-04-12 12:56 -31.45980 152.84400 3148 ft 100 kts 204°
2026-04-12 12:57 -31.46441 152.84223 3122 ft 104 kts 205°
2026-04-12 12:57 -31.47381 152.83820 2991 ft 113 kts 207°
2026-04-12 12:57 -31.47874 152.83595 2985 ft 112 kts 208°
2026-04-12 12:57 -31.48530 152.83112 2947 ft 115 kts 220°
2026-04-12 12:58 -31.49131 152.82559 3014 ft 108 kts 221°
2026-04-12 12:58 -31.49722 152.81994 2994 ft 108 kts 223°
2026-04-12 12:58 -31.50281 152.81414 2970 ft 112 kts 217°
2026-04-12 12:58 -31.50887 152.80887 3099 ft 107 kts 219°
2026-04-12 12:59 -31.51494 152.80376 3084 ft 111 kts 218°
2026-04-12 12:59 -31.52131 152.79897 3145 ft 107 kts 211°
2026-04-12 12:59 -31.52769 152.79481 3132 ft 105 kts 218°
2026-04-12 12:59 -31.53373 152.78984 3149 ft 104 kts 221°
2026-04-12 13:00 -31.53944 152.78461 3134 ft 105 kts 221°
2026-04-12 13:00 -31.54482 152.77893 3313 ft 102 kts 225°
2026-04-12 13:00 -31.55033 152.77330 3343 ft 105 kts 222°
2026-04-12 13:00 -31.55574 152.76813 3479 ft 99 kts 224°
2026-04-12 13:01 -31.56115 152.76275 3437 ft 105 kts 221°
2026-04-12 13:01 -31.56716 152.75738 3374 ft 109 kts 219°
2026-04-12 13:01 -31.57348 152.75225 3322 ft 112 kts 216°
2026-04-12 13:01 -31.58041 152.74742 3283 ft 120 kts 214°
2026-04-12 13:02 -31.58790 152.74263 3191 ft 121 kts 211°
2026-04-12 13:02 -31.59539 152.73837 3059 ft 121 kts 211°
2026-04-12 13:02 -31.60258 152.73386 3029 ft 115 kts 213°
2026-04-12 13:02 -31.60942 152.72953 3151 ft 108 kts 215°
2026-04-12 13:03 -31.61612 152.72572 3180 ft 109 kts 213°
2026-04-12 13:03 -31.62327 152.72188 3111 ft 112 kts 207°
2026-04-12 13:03 -31.63055 152.71862 3116 ft 116 kts 208°
2026-04-12 13:03 -31.63827 152.71492 3038 ft 119 kts 208°
2026-04-12 13:04 -31.64616 152.71218 2996 ft 116 kts 201°
2026-04-12 13:04 -31.65345 152.70905 3073 ft 110 kts 212°
2026-04-12 13:04 -31.66035 152.70467 2918 ft 115 kts 211°
2026-04-12 13:04 -31.66744 152.70034 2862 ft 115 kts 212°
2026-04-12 13:05 -31.67431 152.69559 2809 ft 114 kts 218°
2026-04-12 13:05 -31.68042 152.69026 2785 ft 107 kts 221°
2026-04-12 13:05 -31.68584 152.68410 2663 ft 111 kts 230°
2026-04-12 13:05 -31.69019 152.67733 2742 ft 98 kts 239°
2026-04-12 13:06 -31.69418 152.67045 2719 ft 106 kts 237°
2026-04-12 13:06 -31.69798 152.66313 2756 ft 109 kts 238°
2026-04-12 13:06 -31.70214 152.65536 2714 ft 113 kts 239°
2026-04-12 13:06 -31.70571 152.64737 2710 ft 108 kts 242°
2026-04-12 13:07 -31.70977 152.63990 2607 ft 112 kts 232°
2026-04-12 13:07 -31.71582 152.63382 2588 ft 114 kts 213°
2026-04-12 13:07 -31.72319 152.63079 2722 ft 110 kts 205°
2026-04-12 13:07 -31.73064 152.62844 2757 ft 115 kts 199°
2026-04-12 13:08 -31.73860 152.62681 2740 ft 113 kts 198°
2026-04-12 13:08 -31.74651 152.62523 2688 ft 116 kts 197°
2026-04-12 13:08 -31.75457 152.62318 2543 ft 120 kts 202°
2026-04-12 13:08 -31.76249 152.62017 2362 ft 120 kts 205°
2026-04-12 13:09 -31.77034 152.61684 2441 ft 117 kts 206°
2026-04-12 13:09 -31.77783 152.61350 2601 ft 112 kts 209°
2026-04-12 13:09 -31.78494 152.60991 2571 ft 111 kts 210°
2026-04-12 13:09 -31.79187 152.60565 2468 ft 114 kts 212°
2026-04-12 13:10 -31.79846 152.60209 2269 ft 100 kts 207°
2026-04-12 13:10 -31.80471 152.60000 2134 ft 86 kts 202°
2026-04-12 13:10 -31.81034 152.59788 2008 ft 79 kts 211°
2026-04-12 13:10 -31.81490 152.59475 1935 ft 70 kts 220°
2026-04-12 13:11 -31.81867 152.59208 1932 ft 60 kts 219°
2026-04-12 13:11 -31.82232 152.58928 1778 ft 64 kts 221°
2026-04-12 13:11 -31.82613 152.58609 1618 ft 72 kts 219°
2026-04-12 13:11 -31.83030 152.58230 1506 ft 78 kts 223°
2026-04-12 13:12 -31.83455 152.57820 1443 ft 80 kts 224°
2026-04-12 13:12 -31.83855 152.57366 1415 ft 79 kts 227°
2026-04-12 13:12 -31.84267 152.56904 1338 ft 82 kts 224°
2026-04-12 13:12 -31.84681 152.56423 1177 ft 87 kts 226°
2026-04-12 13:13 -31.85127 152.55922 1071 ft 91 kts 225°
2026-04-12 13:13 -31.85564 152.55440 980 ft 84 kts 224°
2026-04-12 13:13 -31.85968 152.54956 784 ft 86 kts 226°
2026-04-12 13:13 -31.86370 152.54453 657 ft 82 kts 226°
2026-04-12 13:14 -31.86763 152.53967 528 ft 81 kts 228°
2026-04-12 13:14 -31.87159 152.53496 418 ft 81 kts 224°
2026-04-12 13:14 -31.87549 152.53038 293 ft 75 kts 224°
2026-04-12 13:14 -31.87897 152.52633 205 ft 67 kts 226°
2026-04-12 13:15 -31.88222 152.52261 114 ft 64 kts 226°
2026-04-12 13:15 -31.88520 152.51897 48 ft 56 kts 228°
2026-04-12 13:15 -31.88742 152.51630 43 ft 36 kts 222°
2026-04-12 13:15 -31.88891 152.51457 40 ft 25 kts 228°
2026-04-12 13:16 -31.88990 152.51340 41 ft 16 kts 222°
2026-04-12 13:16 -31.89061 152.51262 41 ft 12 kts 225°
2026-04-12 13:16 -31.89115 152.51201 42 ft 10 kts 225°
2026-04-12 13:16 -31.89163 152.51140 43 ft 10 kts 229°
2026-04-12 13:17 -31.89154 152.51068 43 ft 13 kts 297°
2026-04-12 13:17 -31.89095 152.50988 44 ft 7 kts 341°
2026-04-12 13:17 -31.89043 152.51014 45 ft 11 kts 44°
2026-04-12 13:17 -31.88980 152.51058 46 ft 13 kts 72°
2026-04-12 13:18 -31.89015 152.51087 42 ft 0 kts 234°
2026-04-12 13:18 -31.89016 152.51083 42 ft 3 kts 263°
2026-04-12 13:18 -31.89009 152.51067 44 ft 0 kts 303°